createdAt,value
2022-08-03T00:00:30.815Z,22.06
2022-08-03T00:03:33.634Z,22.06
2022-08-03T00:06:37.318Z,22.10
2022-08-03T00:09:39.764Z,21.85
2022-08-03T00:12:42.016Z,21.75
2022-08-03T00:15:44.274Z,21.69
2022-08-03T00:18:46.557Z,21.70
2022-08-03T00:21:48.740Z,21.79
2022-08-03T00:24:50.994Z,21.81
2022-08-03T00:27:53.252Z,21.75
2022-08-03T00:30:56.766Z,21.77
2022-08-03T00:34:03.221Z,21.72
2022-08-03T00:37:05.875Z,21.57
2022-08-03T00:40:10.104Z,21.48
2022-08-03T00:43:13.109Z,21.46
2022-08-03T00:46:20.854Z,21.48
2022-08-03T00:49:24.253Z,21.40
2022-08-03T00:52:26.546Z,21.50
2022-08-03T00:55:29.438Z,21.48
2022-08-03T00:58:32.142Z,21.42
2022-08-03T01:01:34.466Z,21.25
2022-08-03T01:04:36.792Z,21.28
2022-08-03T01:08:03.649Z,21.38
2022-08-03T01:12:00.811Z,21.48
2022-08-03T01:15:21.141Z,21.41
2022-08-03T01:18:39.356Z,21.28
2022-08-03T01:22:20.360Z,21.30
2022-08-03T01:25:45.061Z,21.30
2022-08-03T01:28:59.355Z,21.28
2022-08-03T01:32:58.041Z,21.10
2022-08-03T01:35:43.440Z,20.90
2022-08-03T01:38:51.140Z,20.74
2022-08-03T01:42:00.001Z,20.43
2022-08-03T01:45:03.909Z,20.42
2022-08-03T01:48:07.043Z,20.32
2022-08-03T01:51:10.787Z,20.25
2022-08-03T01:54:14.010Z,20.01
2022-08-03T01:57:17.773Z,19.95
2022-08-03T02:00:20.433Z,19.89
2022-08-03T02:03:23.477Z,19.85
2022-08-03T02:07:02.189Z,19.78
2022-08-03T02:09:51.798Z,19.82
2022-08-03T02:12:54.883Z,19.89
2022-08-03T02:15:58.326Z,19.73
2022-08-03T02:19:04.295Z,19.65
2022-08-03T02:22:10.556Z,19.48
2022-08-03T02:25:14.506Z,19.49
2022-08-03T02:28:20.103Z,19.33
2022-08-03T02:31:29.807Z,19.27
2022-08-03T02:34:34.274Z,19.33
2022-08-03T02:37:42.727Z,19.13
2022-08-03T02:40:50.165Z,19.11
2022-08-03T02:44:06.616Z,19.14
2022-08-03T02:47:11.159Z,19.02
2022-08-03T02:50:14.862Z,18.90
2022-08-03T02:53:18.418Z,18.94
2022-08-03T02:56:24.466Z,18.89
2022-08-03T02:59:29.935Z,19.03
2022-08-03T03:02:33.084Z,19.01
2022-08-03T03:05:52.448Z,18.81
2022-08-03T03:08:59.879Z,18.64
2022-08-03T03:12:03.129Z,18.43
2022-08-03T03:15:06.661Z,18.41
2022-08-03T03:18:10.167Z,18.34
2022-08-03T03:21:13.477Z,18.38
2022-08-03T03:24:16.513Z,18.33
2022-08-03T03:27:18.921Z,18.11
2022-08-03T03:30:23.362Z,18.21
2022-08-03T03:33:28.260Z,18.18
2022-08-03T03:36:31.142Z,18.16
2022-08-03T03:39:33.647Z,18.06
2022-08-03T03:42:36.102Z,18.14
2022-08-03T03:45:38.737Z,18.02
2022-08-03T03:48:41.004Z,18.16
2022-08-03T03:51:43.284Z,18.13
2022-08-03T03:54:45.787Z,18.05
2022-08-03T03:57:47.998Z,18.08
2022-08-03T04:00:50.965Z,18.11
2022-08-03T04:03:53.206Z,18.14
2022-08-03T04:07:14.127Z,18.39
2022-08-03T04:10:39.642Z,19.17
2022-08-03T04:13:55.317Z,19.97
2022-08-03T04:17:05.264Z,20.57
2022-08-03T04:20:07.983Z,20.63
2022-08-03T04:23:13.717Z,21.99
2022-08-03T04:26:21.284Z,22.03
2022-08-03T04:29:25.327Z,22.89
2022-08-03T04:32:28.830Z,23.11
2022-08-03T04:35:58.568Z,22.65
2022-08-03T04:39:03.590Z,23.01
2022-08-03T04:42:09.182Z,22.90
2022-08-03T04:45:16.210Z,22.61
2022-08-03T04:48:20.105Z,22.61
2022-08-03T04:51:22.407Z,23.33
2022-08-03T04:54:24.894Z,23.15
2022-08-03T04:57:27.108Z,23.08
2022-08-03T05:00:29.692Z,23.96
2022-08-03T05:03:32.242Z,23.92
2022-08-03T05:06:34.600Z,25.02
2022-08-03T05:09:50.652Z,24.01
2022-08-03T05:12:55.139Z,24.56
2022-08-03T05:15:57.428Z,24.51
2022-08-03T05:18:59.587Z,24.53
2022-08-03T05:22:01.849Z,24.73
2022-08-03T05:25:04.475Z,24.14
2022-08-03T05:28:06.710Z,24.14
2022-08-03T05:31:08.932Z,23.81
2022-08-03T05:34:11.124Z,23.97
2022-08-03T05:37:13.313Z,23.36
2022-08-03T05:40:15.550Z,23.18
2022-08-03T05:43:17.719Z,23.31
2022-08-03T05:46:20.976Z,23.38
2022-08-03T05:49:23.248Z,23.26
2022-08-03T05:52:25.569Z,23.64
2022-08-03T05:55:28.122Z,23.68
2022-08-03T05:58:31.033Z,23.53
2022-08-03T06:01:35.767Z,23.55
2022-08-03T06:04:38.122Z,23.40
2022-08-03T06:07:40.413Z,23.74
2022-08-03T06:10:42.703Z,23.07
2022-08-03T06:13:46.088Z,23.28
2022-08-03T06:16:48.414Z,23.31
2022-08-03T06:19:53.437Z,23.39
2022-08-03T06:23:00.210Z,23.76
2022-08-03T06:26:03.485Z,23.76
2022-08-03T06:29:05.652Z,23.41
2022-08-03T06:32:10.890Z,23.24
2022-08-03T06:35:14.032Z,23.37
2022-08-03T06:38:16.336Z,23.39
2022-08-03T06:41:18.800Z,23.54
2022-08-03T06:44:21.148Z,23.65
2022-08-03T06:47:23.331Z,23.72
2022-08-03T06:50:26.319Z,23.71
2022-08-03T06:53:28.623Z,23.57
2022-08-03T06:56:30.830Z,23.78
2022-08-03T07:00:10.526Z,23.80
2022-08-03T07:02:58.308Z,24.29
2022-08-03T07:06:01.053Z,25.09
2022-08-03T07:09:03.377Z,25.07
2022-08-03T07:12:06.719Z,24.89
2022-08-03T07:15:09.314Z,25.34
2022-08-03T07:18:28.315Z,25.57
2022-08-03T07:21:32.255Z,25.19
2022-08-03T07:24:34.690Z,25.40
2022-08-03T07:27:38.315Z,25.43
2022-08-03T07:30:40.889Z,25.90
2022-08-03T07:33:43.104Z,26.06
2022-08-03T07:36:45.361Z,26.13
2022-08-03T07:39:47.612Z,26.92
2022-08-03T07:42:53.311Z,26.11
2022-08-03T07:45:55.797Z,26.07
2022-08-03T07:48:58.146Z,26.38
2022-08-03T07:52:19.100Z,26.32
2022-08-03T07:55:25.537Z,26.32
2022-08-03T07:58:27.776Z,26.96
2022-08-03T08:01:32.817Z,27.03
2022-08-03T08:04:35.189Z,27.52
2022-08-03T08:07:38.651Z,28.06
2022-08-03T08:10:41.147Z,28.39
2022-08-03T08:13:43.371Z,28.72
2022-08-03T08:16:46.395Z,29.04
2022-08-03T08:19:51.627Z,28.44
2022-08-03T08:22:57.122Z,28.88
2022-08-03T08:26:00.335Z,28.53
2022-08-03T08:29:03.646Z,28.18
2022-08-03T08:32:05.983Z,28.49
2022-08-03T08:35:08.885Z,28.53
2022-08-03T08:38:11.093Z,28.10
2022-08-03T08:41:14.394Z,27.79
2022-08-03T08:44:16.588Z,27.98
2022-08-03T08:47:30.491Z,27.92
2022-08-03T08:50:54.371Z,27.63
2022-08-03T08:53:58.011Z,28.34
2022-08-03T08:57:03.049Z,28.83
2022-08-03T09:00:14.804Z,29.22
2022-08-03T09:03:22.747Z,29.12
2022-08-03T09:06:31.954Z,28.22
2022-08-03T09:10:10.925Z,28.13
2022-08-03T09:12:56.342Z,28.97
2022-08-03T09:16:21.836Z,29.59
2022-08-03T09:19:24.042Z,29.37
2022-08-03T09:22:28.405Z,29.49
2022-08-03T09:25:41.807Z,29.82
2022-08-03T09:28:56.523Z,29.76
2022-08-03T09:32:06.588Z,29.87
2022-08-03T09:35:09.491Z,29.50
2022-08-03T09:38:16.113Z,29.24
2022-08-03T09:41:19.040Z,28.95
2022-08-03T09:44:34.840Z,29.04
2022-08-03T09:47:37.166Z,29.32
2022-08-03T09:50:58.511Z,29.41
2022-08-03T09:54:03.986Z,29.51
2022-08-03T09:57:07.330Z,29.52
2022-08-03T10:00:14.791Z,29.15
2022-08-03T10:03:17.177Z,29.41
2022-08-03T10:06:20.130Z,28.74
2022-08-03T10:09:22.364Z,29.07
2022-08-03T10:12:25.135Z,29.14
2022-08-03T10:16:23.485Z,29.07
2022-08-03T10:18:49.732Z,29.29
2022-08-03T10:21:58.361Z,30.05
2022-08-03T10:25:04.541Z,30.55
2022-08-03T10:28:07.140Z,30.32
2022-08-03T10:31:10.394Z,30.53
2022-08-03T10:34:23.450Z,30.22
2022-08-03T10:37:27.964Z,30.33
2022-08-03T10:40:49.358Z,29.51
2022-08-03T10:44:11.587Z,29.46
2022-08-03T10:47:13.893Z,29.91
2022-08-03T10:50:16.854Z,29.57
2022-08-03T10:53:55.213Z,29.76
2022-08-03T10:57:17.617Z,30.23
2022-08-03T11:00:23.820Z,30.69
2022-08-03T11:03:26.111Z,30.60
2022-08-03T11:06:28.626Z,30.86
2022-08-03T11:09:53.700Z,30.86
2022-08-03T11:13:06.971Z,30.23
2022-08-03T11:16:23.153Z,30.11
2022-08-03T11:19:57.373Z,30.73
2022-08-03T11:23:01.643Z,31.60
2022-08-03T11:26:22.718Z,31.85
2022-08-03T11:29:29.992Z,32.17
2022-08-03T11:32:38.450Z,32.02
2022-08-03T11:35:58.789Z,32.17
2022-08-03T11:39:16.841Z,32.56
2022-08-03T11:42:22.547Z,32.83
2022-08-03T11:45:24.835Z,32.97
2022-08-03T11:48:32.453Z,33.03
2022-08-03T11:51:35.244Z,32.97
2022-08-03T11:54:37.968Z,33.27
2022-08-03T11:59:00.850Z,33.23
2022-08-03T12:01:07.741Z,32.98
2022-08-03T12:04:11.461Z,33.18
2022-08-03T12:07:13.769Z,33.20
2022-08-03T12:10:37.585Z,32.51
2022-08-03T12:14:45.352Z,31.55
2022-08-03T12:17:07.309Z,31.39
2022-08-03T12:20:22.055Z,30.87
2022-08-03T12:23:38.329Z,31.37
2022-08-03T12:26:58.323Z,32.31
2022-08-03T12:30:02.451Z,32.65
2022-08-03T12:33:26.843Z,32.39
2022-08-03T12:36:31.026Z,31.75
2022-08-03T12:39:33.269Z,32.26
2022-08-03T12:42:37.530Z,31.37
2022-08-03T12:45:39.827Z,31.80
2022-08-03T12:49:04.594Z,31.74
2022-08-03T12:52:07.685Z,32.04
2022-08-03T12:55:19.897Z,31.68
2022-08-03T12:58:34.354Z,31.03
2022-08-03T13:01:37.668Z,31.57
2022-08-03T13:04:39.994Z,31.02
2022-08-03T13:07:45.862Z,30.89
2022-08-03T13:10:48.665Z,30.76
2022-08-03T13:13:52.458Z,30.61
2022-08-03T13:16:54.650Z,30.80
2022-08-03T13:19:56.841Z,31.04
2022-08-03T13:23:00.963Z,31.25
2022-08-03T13:26:03.409Z,31.16
2022-08-03T13:29:05.618Z,30.60
2022-08-03T13:32:08.007Z,30.21
2022-08-03T13:35:11.009Z,29.95
2022-08-03T13:38:18.856Z,30.50
2022-08-03T13:41:29.108Z,30.54
2022-08-03T13:44:37.009Z,30.84
2022-08-03T13:47:39.209Z,30.85
2022-08-03T13:50:43.204Z,31.18
2022-08-03T13:53:45.559Z,31.43
2022-08-03T13:56:52.939Z,31.04
2022-08-03T13:59:55.183Z,31.12
2022-08-03T14:03:05.365Z,30.70
2022-08-03T14:06:11.646Z,30.62
2022-08-03T14:09:14.724Z,31.02
2022-08-03T14:12:16.948Z,30.98
2022-08-03T14:15:19.203Z,31.22
2022-08-03T14:18:28.970Z,30.90
2022-08-03T14:21:36.111Z,30.60
2022-08-03T14:24:38.313Z,30.84
2022-08-03T14:27:40.502Z,30.79
2022-08-03T14:30:43.124Z,30.66
2022-08-03T14:33:45.331Z,30.43
2022-08-03T14:36:47.507Z,30.62
2022-08-03T14:40:05.222Z,30.49
2022-08-03T14:43:07.629Z,30.93
2022-08-03T14:46:09.841Z,30.84
2022-08-03T14:50:33.700Z,31.06
2022-08-03T14:52:34.251Z,30.80
2022-08-03T14:55:38.195Z,30.61
2022-08-03T14:58:41.229Z,30.73
2022-08-03T15:02:06.261Z,30.54
2022-08-03T15:05:06.131Z,30.95
2022-08-03T15:08:09.373Z,31.14
2022-08-03T15:11:11.692Z,31.37
2022-08-03T15:14:14.635Z,31.23
2022-08-03T15:17:17.354Z,30.73
2022-08-03T15:20:26.494Z,30.25
2022-08-03T15:23:38.798Z,30.06
2022-08-03T15:26:41.887Z,30.30
2022-08-03T15:30:05.083Z,30.54
2022-08-03T15:33:06.547Z,30.83
2022-08-03T15:36:08.748Z,31.01
2022-08-03T15:39:11.025Z,31.29
2022-08-03T15:42:13.296Z,31.18
2022-08-03T15:45:17.860Z,31.20
2022-08-03T15:48:26.582Z,30.91
2022-08-03T15:51:28.944Z,30.71
2022-08-03T15:54:31.273Z,30.67
2022-08-03T15:57:33.519Z,30.69
2022-08-03T16:00:59.807Z,30.40
2022-08-03T16:04:02.773Z,30.16
2022-08-03T16:07:06.913Z,29.99
2022-08-03T16:10:14.811Z,30.12
2022-08-03T16:13:16.993Z,30.07
2022-08-03T16:16:19.588Z,30.11
2022-08-03T16:19:21.782Z,30.23
2022-08-03T16:22:25.094Z,30.28
2022-08-03T16:25:28.122Z,30.28
2022-08-03T16:28:31.183Z,30.35
2022-08-03T16:31:33.408Z,30.48
2022-08-03T16:34:36.950Z,30.57
2022-08-03T16:37:39.641Z,30.77
2022-08-03T16:40:42.297Z,30.23
2022-08-03T16:43:44.484Z,30.03
2022-08-03T16:46:46.893Z,30.02
2022-08-03T16:49:54.353Z,29.96
2022-08-03T16:52:58.415Z,29.96
2022-08-03T16:56:00.765Z,29.97
2022-08-03T16:59:04.318Z,29.80
2022-08-03T17:02:12.708Z,29.91
2022-08-03T17:05:14.898Z,29.70
2022-08-03T17:08:26.857Z,29.50
2022-08-03T17:11:29.565Z,29.51
2022-08-03T17:14:34.280Z,29.47
2022-08-03T17:17:53.802Z,29.38
2022-08-03T17:20:58.562Z,29.29
2022-08-03T17:24:12.259Z,29.22
2022-08-03T17:28:41.765Z,29.16
2022-08-03T17:30:59.678Z,29.05
2022-08-03T17:34:04.617Z,29.01
2022-08-03T17:37:26.945Z,28.93
2022-08-03T17:40:29.610Z,28.81
2022-08-03T17:44:14.247Z,28.77
2022-08-03T17:46:56.269Z,28.70
2022-08-03T17:50:00.814Z,28.52
2022-08-03T17:53:15.096Z,28.45
2022-08-03T17:56:40.306Z,28.28
2022-08-03T17:59:58.445Z,28.25
2022-08-03T18:03:25.153Z,28.08
2022-08-03T18:06:31.146Z,27.90
2022-08-03T18:10:05.926Z,27.76
2022-08-03T18:13:04.091Z,27.76
2022-08-03T18:16:18.194Z,27.56
2022-08-03T18:19:21.477Z,27.52
2022-08-03T18:22:44.277Z,27.26
2022-08-03T18:25:56.155Z,27.07
2022-08-03T18:29:01.473Z,26.96
2022-08-03T18:32:13.333Z,26.96
2022-08-03T18:35:16.196Z,26.47
2022-08-03T18:38:19.552Z,26.48
2022-08-03T18:41:32.311Z,26.26
2022-08-03T18:44:52.538Z,26.22
2022-08-03T18:47:58.683Z,26.04
2022-08-03T18:51:28.869Z,25.91
2022-08-03T18:55:20.339Z,25.76
2022-08-03T18:58:35.423Z,25.40
2022-08-03T19:02:00.250Z,25.22
2022-08-03T19:05:09.008Z,24.96
2022-08-03T19:08:29.125Z,24.86
2022-08-03T19:12:14.560Z,24.79
2022-08-03T19:15:06.694Z,24.66
2022-08-03T19:18:16.904Z,24.60
2022-08-03T19:21:19.260Z,24.51
2022-08-03T19:24:23.427Z,24.42
2022-08-03T19:27:29.878Z,24.36
2022-08-03T19:34:00.635Z,24.23
2022-08-03T19:37:03.815Z,24.09
2022-08-03T19:40:10.227Z,24.04
2022-08-03T19:43:49.285Z,24.00
2022-08-03T19:47:06.702Z,23.95
2022-08-03T19:50:14.003Z,23.93
2022-08-03T19:53:17.259Z,23.78
2022-08-03T19:56:23.954Z,23.76
2022-08-03T19:59:27.035Z,23.77
2022-08-03T20:02:29.899Z,23.78
2022-08-03T20:05:45.018Z,23.57
2022-08-03T20:08:54.644Z,23.54
2022-08-03T20:11:57.513Z,23.42
2022-08-03T20:14:59.991Z,23.33
2022-08-03T20:18:03.025Z,23.35
2022-08-03T20:21:14.731Z,23.44
2022-08-03T20:24:23.728Z,23.34
2022-08-03T20:28:07.718Z,23.36
2022-08-03T20:31:09.877Z,23.42
2022-08-03T20:34:12.561Z,23.61
2022-08-03T20:37:20.012Z,23.78
2022-08-03T20:40:22.990Z,23.69
2022-08-03T20:43:29.686Z,23.72
2022-08-03T20:46:46.484Z,23.57
2022-08-03T20:49:54.824Z,23.59
2022-08-03T20:52:58.406Z,23.45
2022-08-03T20:56:05.134Z,23.22
2022-08-03T20:59:14.862Z,23.26
2022-08-03T21:02:19.722Z,23.09
2022-08-03T21:05:48.462Z,23.04
2022-08-03T21:09:00.120Z,23.10
2022-08-03T21:12:07.922Z,22.89
2022-08-03T21:13:02.301Z,24.27
2022-08-03T21:15:10.987Z,22.80
2022-08-03T21:18:37.334Z,22.73
2022-08-03T21:21:42.123Z,22.59
2022-08-03T21:24:44.646Z,22.54
2022-08-03T21:27:47.799Z,22.46
2022-08-03T21:30:50.058Z,22.34
2022-08-03T21:33:53.648Z,22.25
2022-08-03T21:36:55.897Z,22.15
2022-08-03T21:39:58.138Z,22.21
2022-08-03T21:43:00.816Z,22.18
2022-08-03T21:46:05.206Z,22.09
2022-08-03T21:50:07.262Z,22.04
2022-08-03T21:52:33.880Z,22.03
2022-08-03T21:55:38.748Z,22.03
2022-08-03T21:59:00.344Z,21.92
2022-08-03T22:02:03.344Z,21.82
2022-08-03T22:05:06.562Z,21.78
2022-08-03T22:08:08.922Z,21.74
2022-08-03T22:11:11.154Z,21.69
2022-08-03T22:14:13.945Z,21.72
2022-08-03T22:17:53.899Z,21.74
2022-08-03T22:20:38.388Z,21.69
2022-08-03T22:23:43.900Z,21.45
2022-08-03T22:27:07.084Z,21.39
2022-08-03T22:30:15.314Z,21.34
2022-08-03T22:33:18.817Z,21.37
2022-08-03T22:36:23.545Z,21.41
2022-08-03T22:39:28.046Z,21.41
2022-08-03T22:42:30.653Z,21.36
2022-08-03T22:46:07.617Z,21.18
2022-08-03T22:48:55.419Z,21.10
2022-08-03T22:51:59.083Z,20.91
2022-08-03T22:55:07.467Z,20.88
2022-08-03T22:58:09.684Z,20.79
2022-08-03T23:01:13.489Z,20.76
2022-08-03T23:04:17.915Z,20.70
2022-08-03T23:07:28.117Z,20.75
2022-08-03T23:10:31.023Z,20.87
2022-08-03T23:13:33.569Z,20.78
2022-08-03T23:16:39.151Z,20.82
2022-08-03T23:19:47.943Z,20.87
2022-08-03T23:22:50.627Z,21.14
2022-08-03T23:25:53.576Z,21.46
2022-08-03T23:28:56.046Z,21.92
2022-08-03T23:31:59.531Z,22.39
2022-08-03T23:35:22.185Z,22.59
2022-08-03T23:38:35.350Z,22.66
2022-08-03T23:41:39.157Z,22.68
2022-08-03T23:44:43.521Z,22.81
2022-08-03T23:47:47.671Z,22.72
2022-08-03T23:50:59.318Z,22.69
2022-08-03T23:54:07.642Z,22.79
2022-08-03T23:57:30.107Z,23.04
